Time;durP1;ratioP1;P1;durP2;ratioP2;P2;SDS_P1;SDS_P2;PMS_P1;PMS_P2;Temp;Humidity;BMP_temperature;BMP_pressure;BME280_temperature;BME280_humidity;BME280_pressure;Samples;Min_cycle;Max_cycle;Signal;HPM_P1;HPM_P2
2022/02/20 00:01:04;;;;;;;3.60;0.73;;;5.80;99.90;;;;;;6174765;23;20174;-79
2022/02/20 00:03:31;;;;;;;4.30;1.77;;;5.80;99.90;;;;;;6175808;23;20206;-78
2022/02/20 00:05:59;;;;;;;6.53;0.90;;;5.90;99.90;;;;;;6174667;23;20252;-78
2022/02/20 00:08:26;;;;;;;4.03;0.90;;;5.90;99.90;;;;;;6175496;23;20175;-79
2022/02/20 00:10:53;;;;;;;3.27;1.23;;;5.90;99.90;;;;;;6174341;23;20551;-78
2022/02/20 00:13:20;;;;;;;5.43;0.87;;;5.80;99.90;;;;;;6175273;23;20177;-78
2022/02/20 00:15:47;;;;;;;2.20;0.70;;;5.90;99.90;;;;;;6175688;23;20217;-77
2022/02/20 00:18:14;;;;;;;5.03;1.07;;;5.90;99.90;;;;;;6173989;23;20178;-79
2022/02/20 00:20:43;;;;;;;1.93;0.90;;;5.90;99.90;;;;;;6175926;23;20174;-78
2022/02/20 00:23:15;;;;;;;4.10;1.30;;;5.90;99.90;;;;;;6175482;23;20199;-80
2022/02/20 00:25:42;;;;;;;5.60;1.20;;;5.90;99.90;;;;;;6175113;23;20779;-77
2022/02/20 00:28:10;;;;;;;5.53;1.00;;;5.90;99.90;;;;;;6174958;23;20185;-77
2022/02/20 00:30:36;;;;;;;6.00;1.27;;;5.90;99.90;;;;;;6175885;23;20179;-77
2022/02/20 00:33:03;;;;;;;3.10;0.70;;;6.00;99.90;;;;;;6174606;23;20202;-78
2022/02/20 00:35:33;;;;;;;3.27;1.10;;;6.00;99.90;;;;;;6174539;23;20411;-78
2022/02/20 00:38:00;;;;;;;3.30;1.00;;;6.00;99.90;;;;;;6174415;23;20232;-78
2022/02/20 00:40:29;;;;;;;3.17;0.67;;;6.00;99.90;;;;;;6175275;23;20182;-79
2022/02/20 00:42:56;;;;;;;5.43;1.00;;;6.00;99.90;;;;;;6204837;23;20279;-79
2022/02/20 00:45:23;;;;;;;6.33;1.27;;;6.00;99.90;;;;;;6204734;23;20233;-78
2022/02/20 00:47:50;;;;;;;2.27;0.80;;;6.00;99.90;;;;;;6205294;23;20177;-79
2022/02/20 00:50:17;;;;;;;4.87;0.70;;;6.00;99.90;;;;;;6204882;23;20213;-78
2022/02/20 00:52:43;;;;;;;2.80;0.83;;;6.00;99.90;;;;;;6204424;23;20408;-78
2022/02/20 00:55:10;;;;;;;5.57;1.20;;;6.10;99.90;;;;;;6205046;23;20178;-78
2022/02/20 00:57:38;;;;;;;7.53;1.00;;;6.10;99.90;;;;;;6205751;23;20452;-78
2022/02/20 01:00:08;;;;;;;6.60;1.70;;;6.10;99.90;;;;;;6204394;23;20174;-78
2022/02/20 01:02:35;;;;;;;3.70;0.80;;;6.10;99.90;;;;;;6204192;23;20181;-79
2022/02/20 01:05:02;;;;;;;2.90;0.97;;;6.10;99.90;;;;;;6203944;23;20166;-79
2022/02/20 01:07:28;;;;;;;6.07;1.10;;;6.20;99.90;;;;;;6204175;23;20517;-80
2022/02/20 01:09:55;;;;;;;4.60;1.47;;;6.20;99.90;;;;;;6205413;23;20185;-79
2022/02/20 01:12:22;;;;;;;3.53;0.90;;;6.10;99.90;;;;;;6204443;23;20205;-78
2022/02/20 01:14:50;;;;;;;3.23;1.00;;;6.20;99.90;;;;;;6204338;23;20174;-78
2022/02/20 01:17:17;;;;;;;2.63;1.13;;;6.20;99.90;;;;;;6204609;23;20177;-79
2022/02/20 01:19:44;;;;;;;2.27;0.77;;;6.20;99.90;;;;;;6205040;23;20181;-79
2022/02/20 01:22:11;;;;;;;5.50;0.80;;;6.20;99.90;;;;;;6204176;23;20181;-78
2022/02/20 01:24:38;;;;;;;5.17;1.30;;;6.20;99.90;;;;;;6203670;23;20202;-76
2022/02/20 01:27:05;;;;;;;7.50;1.50;;;6.20;99.90;;;;;;6203212;23;20174;-77
2022/02/20 01:29:32;;;;;;;3.27;0.70;;;6.20;99.90;;;;;;6203842;23;20567;-79
2022/02/20 01:32:00;;;;;;;1.40;0.53;;;6.30;99.90;;;;;;6203966;23;20178;-77
2022/02/20 01:34:27;;;;;;;3.60;0.87;;;6.30;99.90;;;;;;6202856;23;20806;-79
2022/02/20 01:36:55;;;;;;;5.50;1.93;;;6.30;99.90;;;;;;6204375;23;20550;-78
2022/02/20 01:39:22;;;;;;;8.30;1.57;;;6.30;99.90;;;;;;6204441;23;20185;-78
2022/02/20 01:41:51;;;;;;;8.40;1.23;;;6.30;99.90;;;;;;6204102;23;20201;-78
2022/02/20 01:44:17;;;;;;;2.93;0.77;;;6.30;99.90;;;;;;6204073;23;20197;-79
2022/02/20 01:46:46;;;;;;;1.33;0.80;;;6.30;99.90;;;;;;6203581;23;20182;-79
2022/02/20 01:49:14;;;;;;;3.63;0.90;;;6.30;99.90;;;;;;6203884;23;20174;-78
2022/02/20 01:51:41;;;;;;;2.50;0.70;;;6.20;99.90;;;;;;6203135;23;20330;-78
2022/02/20 01:54:08;;;;;;;2.83;0.73;;;6.10;99.90;;;;;;6203639;23;20702;-79
2022/02/20 01:56:36;;;;;;;2.20;0.67;;;6.10;99.90;;;;;;6204094;23;20185;-77
2022/02/20 01:59:04;;;;;;;3.70;0.83;;;6.00;99.90;;;;;;6203153;23;20559;-78
2022/02/20 02:01:31;;;;;;;1.57;0.40;;;6.00;99.90;;;;;;6203996;23;20169;-78
2022/02/20 02:03:58;;;;;;;1.57;0.50;;;6.00;99.90;;;;;;6203032;23;20201;-78
2022/02/20 02:06:28;;;;;;;2.97;0.60;;;6.00;99.90;;;;;;6204550;23;20185;-78
2022/02/20 02:08:56;;;;;;;2.30;0.60;;;6.00;99.90;;;;;;6203937;23;20260;-77
2022/02/20 02:11:22;;;;;;;8.07;0.70;;;6.00;99.90;;;;;;6203126;23;20174;-76
2022/02/20 02:13:49;;;;;;;6.20;0.83;;;6.00;99.90;;;;;;6216760;22;20448;-77
2022/02/20 02:16:16;;;;;;;5.20;1.50;;;6.10;99.90;;;;;;6233474;23;20165;-77
2022/02/20 02:18:43;;;;;;;4.03;1.00;;;6.10;99.90;;;;;;6234242;23;20177;-78
2022/02/20 02:21:10;;;;;;;2.97;1.30;;;6.10;99.90;;;;;;6234633;23;20177;-78
2022/02/20 02:23:38;;;;;;;8.00;1.97;;;6.00;99.90;;;;;;6233924;23;20508;-78
2022/02/20 02:26:07;;;;;;;7.07;2.40;;;6.00;99.90;;;;;;6233194;23;20178;-78
2022/02/20 02:28:34;;;;;;;3.50;1.60;;;5.90;99.90;;;;;;6234273;23;20173;-78
2022/02/20 02:31:02;;;;;;;2.60;1.10;;;5.90;99.90;;;;;;6232626;23;20175;-78
2022/02/20 02:33:31;;;;;;;5.60;1.10;;;5.90;99.90;;;;;;6220819;23;20600;-78
2022/02/20 02:35:58;;;;;;;4.27;2.17;;;5.90;99.90;;;;;;6203934;23;20178;-79
2022/02/20 02:38:27;;;;;;;5.77;2.13;;;5.90;99.90;;;;;;6202618;23;20177;-78
2022/02/20 02:40:57;;;;;;;6.87;2.60;;;6.00;99.90;;;;;;6203582;23;20209;-78
2022/02/20 02:43:24;;;;;;;7.90;1.70;;;6.00;99.90;;;;;;6204010;23;20598;-76
2022/02/20 02:45:51;;;;;;;5.47;1.70;;;6.00;99.90;;;;;;6200867;23;20192;-77
2022/02/20 02:48:18;;;;;;;5.27;1.63;;;6.00;99.90;;;;;;6203812;23;20213;-78
2022/02/20 02:50:47;;;;;;;3.33;0.97;;;6.00;99.90;;;;;;6203131;23;20704;-78
2022/02/20 02:53:13;;;;;;;1.60;0.90;;;6.00;99.90;;;;;;6202748;23;20181;-77
2022/02/20 02:55:44;;;;;;;2.80;0.97;;;6.00;99.90;;;;;;6200952;23;20178;-78
2022/02/20 02:58:17;;;;;;;4.13;1.90;;;5.90;99.90;;;;;;6200651;23;20177;-77
2022/02/20 03:00:44;;;;;;;8.00;3.00;;;5.90;99.90;;;;;;6199720;23;20169;-77
2022/02/20 03:03:11;;;;;;;9.70;3.27;;;5.80;99.90;;;;;;6200470;23;20554;-78
2022/02/20 03:05:37;;;;;;;8.90;2.13;;;5.80;99.90;;;;;;6200100;23;20523;-78
2022/02/20 03:08:05;;;;;;;3.50;1.20;;;5.80;99.90;;;;;;6199753;23;20177;-78
2022/02/20 03:10:32;;;;;;;3.63;1.23;;;5.90;99.90;;;;;;6201572;23;20174;-78
2022/02/20 03:12:59;;;;;;;5.77;1.40;;;5.80;99.90;;;;;;6199514;23;20170;-77
2022/02/20 03:15:27;;;;;;;2.57;1.00;;;5.80;99.90;;;;;;6200823;23;20547;-77
2022/02/20 03:17:54;;;;;;;4.57;1.13;;;5.80;99.90;;;;;;6199797;23;20166;-77
2022/02/20 03:20:20;;;;;;;3.97;1.17;;;5.80;99.90;;;;;;6199651;23;20186;-78
2022/02/20 03:22:48;;;;;;;4.73;1.33;;;5.80;99.90;;;;;;6201323;23;20209;-76
2022/02/20 03:25:15;;;;;;;4.00;0.73;;;5.80;99.90;;;;;;6198007;23;20626;-76
2022/02/20 03:27:42;;;;;;;4.17;1.37;;;5.80;99.90;;;;;;6199491;23;20451;-78
2022/02/20 03:30:10;;;;;;;3.77;0.90;;;5.70;99.90;;;;;;6202514;23;20177;-76
2022/02/20 03:32:38;;;;;;;3.43;0.90;;;5.70;99.90;;;;;;6203559;23;20178;-77
2022/02/20 03:35:06;;;;;;;4.67;1.07;;;5.70;99.90;;;;;;6203306;23;20174;-78
2022/02/20 03:37:33;;;;;;;7.50;1.00;;;5.70;99.90;;;;;;6205468;23;20209;-77
2022/02/20 03:39:59;;;;;;;6.07;1.47;;;5.70;99.90;;;;;;6204636;23;20173;-79
2022/02/20 03:42:26;;;;;;;7.57;0.97;;;5.70;99.90;;;;;;6204256;23;20169;-77
2022/02/20 03:44:53;;;;;;;7.63;1.20;;;5.70;99.90;;;;;;6205105;23;20201;-77
2022/02/20 03:47:20;;;;;;;4.33;1.23;;;5.70;99.90;;;;;;6205307;23;20182;-78
2022/02/20 03:49:48;;;;;;;3.13;1.07;;;5.70;99.90;;;;;;6203979;23;20181;-77
2022/02/20 03:52:15;;;;;;;4.00;0.87;;;5.70;99.90;;;;;;6205015;23;20213;-78
2022/02/20 03:54:41;;;;;;;14.83;2.10;;;5.70;99.90;;;;;;6204446;23;20233;-77
2022/02/20 03:57:08;;;;;;;8.30;1.80;;;5.70;99.90;;;;;;6204484;23;20185;-78
2022/02/20 03:59:35;;;;;;;6.40;1.30;;;5.70;99.90;;;;;;6205277;23;20181;-76
2022/02/20 04:02:02;;;;;;;5.27;1.00;;;5.70;99.90;;;;;;6204195;23;20178;-77
2022/02/20 04:04:28;;;;;;;10.50;1.57;;;5.70;99.90;;;;;;6204543;23;20592;-77
2022/02/20 04:06:56;;;;;;;7.07;2.13;;;5.70;99.90;;;;;;6204478;23;20587;-77
2022/02/20 04:09:23;;;;;;;8.90;1.80;;;5.80;99.90;;;;;;6204816;23;20170;-77
2022/02/20 04:11:50;;;;;;;6.07;1.80;;;5.80;99.90;;;;;;6204478;23;20178;-78
2022/02/20 04:14:17;;;;;;;6.67;1.80;;;5.80;99.90;;;;;;6203604;23;20629;-78
2022/02/20 04:16:43;;;;;;;6.63;1.97;;;5.80;99.90;;;;;;6203943;23;20174;-79
2022/02/20 04:19:10;;;;;;;5.33;1.80;;;5.80;99.90;;;;;;6203922;23;20191;-78
2022/02/20 04:21:37;;;;;;;10.83;1.63;;;5.70;99.90;;;;;;6204865;23;20178;-79
2022/02/20 04:24:06;;;;;;;4.77;1.70;;;5.70;99.90;;;;;;6204685;23;20198;-80
2022/02/20 04:26:32;;;;;;;7.50;2.60;;;5.70;99.90;;;;;;6205092;23;20644;-79
2022/02/20 04:28:59;;;;;;;6.60;2.30;;;5.60;99.90;;;;;;6204330;23;20579;-80
2022/02/20 04:31:26;;;;;;;7.30;1.90;;;5.70;99.90;;;;;;6205453;23;20181;-80
2022/02/20 04:33:53;;;;;;;6.63;2.50;;;5.60;99.90;;;;;;6205039;23;20199;-79
2022/02/20 04:36:20;;;;;;;7.30;2.33;;;5.60;99.90;;;;;;6205277;23;20560;-80
2022/02/20 04:38:47;;;;;;;9.73;2.93;;;5.60;99.90;;;;;;6203821;23;20177;-80
2022/02/20 04:41:15;;;;;;;9.30;3.17;;;5.50;99.90;;;;;;6205561;23;20186;-80
2022/02/20 04:43:42;;;;;;;6.43;3.40;;;5.40;99.90;;;;;;6204926;23;20178;-79
2022/02/20 04:46:08;;;;;;;8.90;4.10;;;5.40;99.90;;;;;;6204651;23;20571;-80
2022/02/20 04:48:35;;;;;;;7.30;4.13;;;5.40;99.90;;;;;;6206301;23;20183;-80
2022/02/20 04:51:02;;;;;;;9.80;4.73;;;5.40;99.90;;;;;;6204925;23;20178;-80
2022/02/20 04:53:29;;;;;;;8.73;5.30;;;5.40;99.90;;;;;;6204897;23;20252;-80
2022/02/20 04:55:56;;;;;;;14.80;6.70;;;5.40;99.90;;;;;;6205204;23;20170;-81
2022/02/20 04:58:24;;;;;;;9.73;6.40;;;5.30;99.90;;;;;;6205160;23;20591;-79
2022/02/20 05:00:51;;;;;;;12.27;7.33;;;5.30;99.90;;;;;;6205473;23;20810;-81
2022/02/20 05:03:17;;;;;;;13.77;8.33;;;5.30;99.90;;;;;;6205247;23;20185;-80
2022/02/20 05:05:44;;;;;;;15.80;8.60;;;5.20;99.90;;;;;;6204426;23;20205;-81
2022/02/20 05:08:11;;;;;;;12.87;9.10;;;5.20;99.90;;;;;;6205404;23;20189;-80
2022/02/20 05:10:38;;;;;;;16.80;10.20;;;5.20;99.90;;;;;;6205979;23;20174;-80
2022/02/20 05:13:05;;;;;;;16.47;10.53;;;5.20;99.90;;;;;;6205615;23;20546;-80
2022/02/20 05:15:33;;;;;;;13.67;9.97;;;5.20;99.90;;;;;;6205263;23;20178;-81
2022/02/20 05:18:00;;;;;;;25.27;11.80;;;5.20;99.90;;;;;;6205393;23;20507;-79
2022/02/20 05:20:26;;;;;;;15.17;10.43;;;5.10;99.90;;;;;;6204940;23;20440;-79
2022/02/20 05:22:53;;;;;;;16.63;10.47;;;5.10;99.90;;;;;;6206154;23;20178;-81
2022/02/20 05:25:20;;;;;;;20.80;10.00;;;5.10;99.90;;;;;;6205621;23;20197;-82
2022/02/20 05:27:47;;;;;;;14.80;10.03;;;5.20;99.90;;;;;;6205827;23;20181;-80
2022/02/20 05:30:16;;;;;;;15.10;9.73;;;5.20;99.90;;;;;;6205814;23;20174;-80
2022/02/20 05:32:44;;;;;;;17.30;10.73;;;5.20;99.90;;;;;;6205696;23;20178;-80
2022/02/20 05:35:12;;;;;;;15.20;10.07;;;5.20;99.90;;;;;;6205198;23;20170;-80
2022/02/20 05:37:42;;;;;;;16.50;9.93;;;5.20;99.90;;;;;;6205459;23;20188;-80
2022/02/20 05:40:11;;;;;;;13.03;9.97;;;5.30;99.90;;;;;;6205285;23;20173;-81
2022/02/20 05:42:38;;;;;;;16.67;10.37;;;5.30;99.90;;;;;;6205025;23;20174;-81
2022/02/20 05:45:06;;;;;;;17.03;10.10;;;5.30;99.90;;;;;;6204502;23;20607;-81
2022/02/20 05:47:33;;;;;;;15.73;9.97;;;5.30;99.90;;;;;;6203558;23;20174;-81
2022/02/20 05:50:01;;;;;;;17.07;10.20;;;5.30;99.90;;;;;;6203757;23;20173;-80
2022/02/20 05:52:28;;;;;;;17.77;10.57;;;5.40;99.90;;;;;;6208068;23;20174;-80
2022/02/20 05:54:55;;;;;;;16.80;10.47;;;5.40;99.90;;;;;;6205658;23;20570;-80
2022/02/20 05:57:21;;;;;;;20.27;10.07;;;5.40;99.90;;;;;;6205718;23;20170;-81
2022/02/20 05:59:48;;;;;;;13.70;10.53;;;5.40;99.90;;;;;;6205967;23;20178;-80
2022/02/20 06:02:16;;;;;;;12.23;9.83;;;5.50;99.90;;;;;;6205630;23;20197;-81
2022/02/20 06:04:43;;;;;;;15.30;10.10;;;5.50;99.90;;;;;;6204830;23;20609;-80
2022/02/20 06:07:11;;;;;;;16.90;9.93;;;5.50;99.90;;;;;;6205453;23;20174;-81
2022/02/20 06:09:38;;;;;;;12.23;8.77;;;5.60;99.90;;;;;;6204457;23;20170;-82
2022/02/20 06:12:05;;;;;;;16.37;9.63;;;5.70;99.90;;;;;;6204444;23;20170;-81
2022/02/20 06:14:32;;;;;;;15.20;9.33;;;5.70;99.90;;;;;;6205170;23;20206;-81
2022/02/20 06:16:59;;;;;;;12.97;8.00;;;5.80;99.90;;;;;;6205128;23;20204;-81
2022/02/20 06:19:25;;;;;;;16.07;8.93;;;6.00;99.90;;;;;;6204575;23;20173;-81
2022/02/20 06:21:52;;;;;;;14.80;9.13;;;6.10;99.90;;;;;;6206017;23;20205;-80
2022/02/20 06:24:20;;;;;;;15.73;8.47;;;6.30;99.90;;;;;;6205352;23;20185;-82
2022/02/20 06:26:48;;;;;;;14.97;7.67;;;6.40;99.90;;;;;;6205312;23;20500;-80
2022/02/20 06:29:15;;;;;;;14.77;7.77;;;6.50;99.90;;;;;;6205265;23;20185;-80
2022/02/20 06:31:42;;;;;;;17.03;8.00;;;6.60;99.90;;;;;;6203794;23;20178;-81
2022/02/20 06:34:08;;;;;;;17.57;6.63;;;6.70;99.90;;;;;;6203602;23;20800;-81
2022/02/20 06:36:35;;;;;;;22.70;6.33;;;6.90;99.90;;;;;;6204099;23;20690;-80
2022/02/20 06:39:03;;;;;;;31.63;6.80;;;7.10;99.90;;;;;;6204145;23;20741;-79
2022/02/20 06:41:32;;;;;;;36.27;9.17;;;7.30;99.90;;;;;;6205174;23;20289;-81
2022/02/20 06:43:59;;;;;;;34.67;7.70;;;7.40;99.90;;;;;;6202975;23;20173;-80
2022/02/20 06:46:25;;;;;;;48.90;9.90;;;7.60;99.90;;;;;;6204235;23;20185;-80
2022/02/20 06:48:52;;;;;;;64.37;11.20;;;7.70;99.90;;;;;;6204297;23;20923;-80
2022/02/20 06:51:19;;;;;;;46.03;8.83;;;7.80;99.90;;;;;;6202947;23;20181;-79
2022/02/20 06:53:46;;;;;;;63.53;12.13;;;7.90;99.90;;;;;;6204124;23;20173;-80
2022/02/20 06:56:12;;;;;;;41.57;9.87;;;8.00;99.90;;;;;;6204349;23;20474;-81
2022/02/20 06:58:41;;;;;;;56.67;10.73;;;8.10;99.90;;;;;;6204097;23;20174;-82
2022/02/20 07:01:08;;;;;;;81.50;14.63;;;8.20;99.90;;;;;;6204266;23;20261;-81
2022/02/20 07:03:34;;;;;;;62.83;10.37;;;8.20;99.90;;;;;;6204145;23;20181;-80
2022/02/20 07:06:01;;;;;;;75.00;14.50;;;8.20;99.90;;;;;;6203552;23;20194;-78
2022/02/20 07:08:28;;;;;;;59.50;10.27;;;8.30;99.90;;;;;;6203595;23;20544;-80
2022/02/20 07:10:55;;;;;;;59.03;9.73;;;8.40;99.90;;;;;;6204426;23;20167;-80
2022/02/20 07:13:21;;;;;;;66.30;13.23;;;8.40;99.90;;;;;;6203592;23;20206;-80
2022/02/20 07:15:50;;;;;;;62.33;11.73;;;8.40;99.90;;;;;;6202984;23;20185;-80
2022/02/20 07:18:17;;;;;;;53.73;11.33;;;8.50;99.90;;;;;;6203974;23;20180;-79
2022/02/20 07:20:44;;;;;;;65.87;11.73;;;8.50;99.90;;;;;;6202202;23;20185;-79
2022/02/20 07:23:10;;;;;;;60.57;11.80;;;8.50;99.90;;;;;;6204142;23;20173;-80
2022/02/20 07:25:38;;;;;;;56.73;12.07;;;8.60;99.90;;;;;;6204026;23;20201;-82
2022/02/20 07:28:05;;;;;;;68.03;11.57;;;8.60;99.90;;;;;;6202585;23;20560;-80
2022/02/20 07:30:33;;;;;;;57.77;11.13;;;8.70;99.90;;;;;;6203786;23;20170;-80
2022/02/20 07:33:04;;;;;;;57.73;11.73;;;8.70;99.90;;;;;;6202299;23;20193;-79
2022/02/20 07:35:31;;;;;;;68.27;12.17;;;8.70;99.90;;;;;;6203751;23;20216;-80
2022/02/20 07:37:58;;;;;;;69.23;11.73;;;8.70;99.90;;;;;;6202754;23;20583;-79
2022/02/20 07:40:25;;;;;;;69.03;12.67;;;8.70;99.90;;;;;;6203427;23;20928;-80
2022/02/20 07:42:52;;;;;;;56.30;10.70;;;8.70;99.90;;;;;;6203071;23;20174;-79
2022/02/20 07:45:23;;;;;;;60.53;11.70;;;8.70;99.90;;;;;;6203233;23;20208;-79
2022/02/20 07:47:52;;;;;;;65.80;12.87;;;8.80;99.90;;;;;;6203370;23;20170;-80
2022/02/20 07:50:22;;;;;;;61.70;12.93;;;8.80;99.90;;;;;;6203945;23;20170;-80
2022/02/20 07:52:48;;;;;;;52.53;10.97;;;8.80;99.90;;;;;;6203066;23;20287;-81
2022/02/20 07:55:16;;;;;;;70.30;12.10;;;8.80;99.90;;;;;;6203727;23;20181;-79
2022/02/20 07:57:43;;;;;;;60.93;11.90;;;8.90;99.90;;;;;;6203363;23;20198;-80
2022/02/20 08:00:11;;;;;;;65.07;11.80;;;8.80;99.90;;;;;;6203276;23;20186;-80
2022/02/20 08:02:39;;;;;;;73.53;12.67;;;8.80;99.90;;;;;;6204161;23;20178;-81
2022/02/20 08:05:07;;;;;;;58.60;13.07;;;8.90;99.90;;;;;;6202911;23;20194;-80
2022/02/20 08:07:35;;;;;;;53.37;10.10;;;8.90;99.90;;;;;;6203694;23;20178;-78
2022/02/20 08:10:03;;;;;;;64.53;11.60;;;8.90;99.90;;;;;;6202496;23;20178;-79
2022/02/20 08:12:29;;;;;;;52.07;10.33;;;8.90;99.90;;;;;;6202983;23;20166;-79
2022/02/20 08:14:56;;;;;;;59.60;10.43;;;8.90;99.90;;;;;;6203279;23;20602;-81
2022/02/20 08:17:23;;;;;;;62.57;11.40;;;8.90;99.90;;;;;;6203573;23;20166;-80
2022/02/20 08:19:50;;;;;;;49.17;10.60;;;8.90;99.90;;;;;;6203150;23;20437;-79
2022/02/20 08:22:17;;;;;;;57.70;10.43;;;8.90;99.90;;;;;;6203788;23;20236;-80
2022/02/20 08:24:46;;;;;;;68.20;11.77;;;8.90;99.90;;;;;;6205113;23;20542;-79
2022/02/20 08:27:13;;;;;;;70.73;11.70;;;8.90;99.90;;;;;;6204302;23;20254;-80
2022/02/20 08:33:05;;;;;;;60.60;11.37;;;8.90;99.90;;;;;;6173134;23;20205;-78
2022/02/20 08:35:32;;;;;;;61.83;11.20;;;9.00;99.90;;;;;;6205385;23;20888;-79
2022/02/20 08:38:01;;;;;;;57.83;11.87;;;9.00;99.90;;;;;;6203646;23;20728;-79
2022/02/20 08:40:29;;;;;;;63.97;11.43;;;9.00;99.90;;;;;;6205243;23;20923;-78
2022/02/20 08:42:56;;;;;;;57.83;11.37;;;9.00;99.90;;;;;;6204032;23;20559;-78
2022/02/20 08:45:23;;;;;;;58.60;10.63;;;9.10;99.90;;;;;;6203522;23;20251;-78
2022/02/20 08:47:50;;;;;;;60.03;10.57;;;9.10;99.90;;;;;;6201367;23;20166;-78
2022/02/20 08:50:17;;;;;;;65.47;11.17;;;9.10;99.90;;;;;;6203905;23;20166;-79
2022/02/20 08:52:45;;;;;;;57.23;13.27;;;9.10;99.90;;;;;;6204839;23;20719;-79
2022/02/20 08:55:13;;;;;;;71.47;12.77;;;9.10;99.90;;;;;;6203953;23;20252;-78
2022/02/20 08:57:43;;;;;;;72.13;12.40;;;9.20;99.90;;;;;;6203178;23;20186;-78
2022/02/20 09:00:11;;;;;;;74.10;12.93;;;9.20;99.90;;;;;;6204749;23;20249;-78
2022/02/20 09:02:38;;;;;;;69.53;12.23;;;9.20;99.90;;;;;;6202720;23;20174;-78
2022/02/20 09:05:05;;;;;;;64.77;12.13;;;9.20;99.90;;;;;;6203882;23;20170;-79
2022/02/20 09:07:32;;;;;;;68.33;12.40;;;9.20;99.90;;;;;;6205138;23;20174;-78
2022/02/20 09:09:59;;;;;;;72.83;13.33;;;9.20;99.90;;;;;;6203107;23;20177;-78
2022/02/20 09:12:26;;;;;;;73.57;14.57;;;9.30;99.90;;;;;;6204523;23;20178;-78
2022/02/20 09:14:54;;;;;;;74.43;14.80;;;9.30;99.90;;;;;;6203608;23;20206;-78
2022/02/20 09:17:20;;;;;;;61.50;12.43;;;9.30;99.90;;;;;;6203799;23;20178;-77
2022/02/20 09:19:47;;;;;;;76.07;16.20;;;9.30;99.90;;;;;;6204702;23;20185;-78
2022/02/20 09:22:14;;;;;;;68.77;15.03;;;9.30;99.90;;;;;;6203988;23;20185;-76
2022/02/20 09:24:41;;;;;;;72.67;13.67;;;9.40;99.90;;;;;;6205220;23;20182;-78
2022/02/20 09:27:08;;;;;;;77.77;14.33;;;9.40;99.90;;;;;;6203905;23;20205;-77
2022/02/20 09:29:35;;;;;;;81.47;14.97;;;9.40;99.90;;;;;;6204459;23;20437;-78
2022/02/20 09:32:04;;;;;;;63.67;13.10;;;9.40;99.90;;;;;;6203247;23;20174;-79
2022/02/20 09:34:31;;;;;;;80.57;12.53;;;9.50;99.90;;;;;;6202975;23;20194;-78
2022/02/20 09:36:58;;;;;;;68.80;14.80;;;9.50;99.90;;;;;;6204104;23;20174;-79
2022/02/20 09:39:24;;;;;;;86.77;15.40;;;9.60;99.90;;;;;;6204591;23;20181;-79
2022/02/20 09:41:51;;;;;;;72.23;14.07;;;9.60;99.90;;;;;;6203708;23;20166;-78
2022/02/20 09:44:18;;;;;;;81.00;15.73;;;9.60;99.90;;;;;;6204900;23;20189;-79
2022/02/20 09:46:46;;;;;;;84.23;15.03;;;9.50;99.90;;;;;;6176490;23;20194;-79
2022/02/20 09:49:14;;;;;;;88.77;17.27;;;9.60;99.90;;;;;;6203251;23;20177;-79
2022/02/20 09:51:41;;;;;;;82.60;16.60;;;9.60;99.90;;;;;;6203286;23;20170;-78
2022/02/20 09:54:08;;;;;;;78.30;15.77;;;9.60;99.90;;;;;;6202408;23;20174;-78
2022/02/20 09:56:35;;;;;;;93.67;18.13;;;9.60;99.90;;;;;;6204650;23;20177;-78
2022/02/20 09:59:01;;;;;;;82.53;15.50;;;9.60;99.90;;;;;;6203301;23;20194;-79
2022/02/20 10:01:29;;;;;;;81.80;15.93;;;9.60;99.90;;;;;;6202962;23;20171;-79
2022/02/20 10:03:56;;;;;;;90.87;17.13;;;9.60;99.90;;;;;;6203224;23;20255;-80
2022/02/20 10:06:26;;;;;;;80.87;14.70;;;9.60;99.90;;;;;;6204090;23;20645;-78
2022/02/20 10:08:55;;;;;;;73.97;15.03;;;9.60;99.90;;;;;;6202724;23;20626;-78
2022/02/20 10:11:24;;;;;;;92.20;18.30;;;9.60;99.90;;;;;;6203677;23;20174;-79
2022/02/20 10:13:52;;;;;;;91.07;16.83;;;9.60;99.90;;;;;;6204019;23;20209;-78
2022/02/20 10:16:21;;;;;;;81.37;16.77;;;9.60;99.90;;;;;;6203568;23;20224;-78
2022/02/20 10:18:50;;;;;;;91.10;17.00;;;9.60;99.90;;;;;;6203854;23;20181;-79
2022/02/20 10:21:21;;;;;;;95.60;16.03;;;9.60;99.90;;;;;;6204567;23;20544;-79
2022/02/20 10:23:50;;;;;;;85.50;17.13;;;9.60;99.90;;;;;;6203369;23;20167;-80
2022/02/20 10:26:19;;;;;;;92.47;17.27;;;9.60;99.90;;;;;;6204164;23;20610;-80
2022/02/20 10:29:07;;;;;;;92.43;16.27;;;9.60;99.90;;;;;;6204275;23;20184;-79
2022/02/20 10:31:43;;;;;;;81.83;16.00;;;9.60;99.90;;;;;;6204180;23;20158;-78
2022/02/20 10:34:11;;;;;;;72.30;17.67;;;9.60;99.90;;;;;;6204354;23;20258;-79
2022/02/20 10:36:50;;;;;;;88.10;16.10;;;9.60;99.90;;;;;;6203790;23;20429;-79
2022/02/20 10:39:40;;;;;;;80.23;16.37;;;9.60;99.90;;;;;;6204882;23;20181;-77
2022/02/20 10:42:13;;;;;;;90.30;16.77;;;9.60;99.90;;;;;;6204123;23;20476;-78
2022/02/20 10:44:49;;;;;;;92.87;17.27;;;9.60;99.90;;;;;;6204059;23;20174;-79
2022/02/20 10:47:16;;;;;;;75.00;17.30;;;9.60;99.90;;;;;;6204641;23;20190;-78
2022/02/20 10:49:43;;;;;;;81.73;15.80;;;9.60;99.90;;;;;;6202801;23;20181;-79
2022/02/20 10:52:21;;;;;;;95.33;18.17;;;9.60;99.90;;;;;;6204043;23;20239;-78
2022/02/20 10:55:07;;;;;;;98.47;17.90;;;9.60;99.90;;;;;;6204276;23;20170;-78
2022/02/20 10:57:35;;;;;;;79.93;17.00;;;9.70;99.90;;;;;;6203211;23;20174;-79
2022/02/20 11:00:10;;;;;;;86.90;17.50;;;9.60;99.90;;;;;;6203326;23;20180;-77
2022/02/20 11:02:37;;;;;;;90.10;16.63;;;9.70;99.90;;;;;;6204386;23;20833;-78
2022/02/20 11:05:05;;;;;;;98.20;20.37;;;9.70;99.90;;;;;;6202560;23;20575;-77
2022/02/20 11:07:34;;;;;;;91.47;16.93;;;9.70;99.90;;;;;;6203457;23;20194;-78
2022/02/20 11:10:01;;;;;;;93.93;16.50;;;9.60;99.90;;;;;;6203027;23;20209;-79
2022/02/20 11:12:30;;;;;;;88.47;17.30;;;9.70;99.90;;;;;;6202842;23;20186;-78
2022/02/20 11:14:58;;;;;;;89.23;19.97;;;9.70;99.90;;;;;;6203055;23;20232;-78
2022/02/20 11:17:25;;;;;;;83.67;17.07;;;9.70;99.90;;;;;;6204704;23;20181;-79
2022/02/20 11:19:54;;;;;;;98.30;20.07;;;9.70;99.90;;;;;;6203360;23;20174;-79
2022/02/20 11:22:22;;;;;;;84.40;17.97;;;9.70;99.90;;;;;;6203170;23;20170;-79
2022/02/20 11:24:51;;;;;;;93.63;17.10;;;9.70;99.90;;;;;;6200225;23;20228;-79
2022/02/20 11:27:20;;;;;;;98.70;18.57;;;9.70;99.90;;;;;;6202419;23;20209;-76
2022/02/20 11:29:49;;;;;;;95.33;18.20;;;9.70;99.90;;;;;;6203471;23;20189;-80
2022/02/20 11:32:16;;;;;;;74.00;15.57;;;9.70;99.90;;;;;;6201242;23;20182;-78
2022/02/20 11:34:45;;;;;;;94.67;16.10;;;9.70;99.90;;;;;;6202193;23;20247;-81
2022/02/20 11:37:13;;;;;;;92.13;16.90;;;9.70;99.90;;;;;;6202162;23;20205;-79
2022/02/20 11:39:59;;;;;;;80.97;16.17;;;9.70;99.90;;;;;;6202352;23;20193;-78
2022/02/20 11:42:25;;;;;;;84.83;18.03;;;9.70;99.90;;;;;;6200588;23;20186;-78
2022/02/20 11:44:55;;;;;;;95.87;18.13;;;9.60;99.90;;;;;;6201804;23;20189;-78
2022/02/20 11:47:40;;;;;;;87.90;16.97;;;9.70;99.90;;;;;;6200224;23;20205;-77
2022/02/20 11:50:32;;;;;;;85.17;17.57;;;9.70;99.90;;;;;;6201348;23;20182;-78
2022/02/20 11:53:00;;;;;;;76.83;15.03;;;9.70;99.90;;;;;;6200813;23;21021;-78
2022/02/20 11:55:29;;;;;;;92.87;17.77;;;9.70;99.90;;;;;;6201605;23;20809;-78
2022/02/20 11:58:23;;;;;;;89.90;18.33;;;9.70;99.90;;;;;;6203530;23;20182;-78
2022/02/20 12:01:14;;;;;;;86.97;17.27;;;9.70;99.90;;;;;;6202228;23;20209;-79
2022/02/20 12:04:01;;;;;;;80.60;16.63;;;9.80;99.90;;;;;;6203693;23;20217;-77
2022/02/20 12:06:28;;;;;;;93.27;18.27;;;9.80;99.90;;;;;;6204400;23;20200;-79
2022/02/20 12:08:58;;;;;;;81.70;17.00;;;9.80;99.90;;;;;;6202592;23;20923;-78
2022/02/20 12:11:27;;;;;;;86.27;20.53;;;9.70;99.90;;;;;;6204201;23;20209;-79
2022/02/20 12:13:56;;;;;;;73.77;16.50;;;9.80;99.90;;;;;;6203807;23;20209;-79
2022/02/20 12:16:32;;;;;;;101.70;20.73;;;9.70;99.90;;;;;;6202699;23;20177;-76
2022/02/20 12:19:18;;;;;;;88.57;16.70;;;9.70;99.90;;;;;;6203631;23;20184;-78
2022/02/20 12:21:54;;;;;;;80.67;16.10;;;9.70;99.90;;;;;;6201686;23;20197;-78
2022/02/20 12:24:24;;;;;;;100.10;21.10;;;9.70;99.90;;;;;;6203212;23;20185;-78
2022/02/20 12:26:55;;;;;;;91.87;18.70;;;9.70;99.90;;;;;;6204664;23;20205;-78
2022/02/20 12:29:24;;;;;;;99.50;18.80;;;9.70;99.90;;;;;;6203080;23;20186;-80
2022/02/20 12:32:10;;;;;;;88.10;17.17;;;9.70;99.90;;;;;;6204256;23;20303;-79
2022/02/20 12:34:58;;;;;;;87.17;16.50;;;9.70;99.90;;;;;;6204189;23;20205;-78
2022/02/20 12:37:27;;;;;;;96.70;17.13;;;9.70;99.90;;;;;;6203768;23;20181;-81
2022/02/20 12:39:56;;;;;;;101.37;19.57;;;9.70;99.90;;;;;;6202546;23;20186;-80
2022/02/20 12:42:24;;;;;;;98.87;19.97;;;9.70;99.90;;;;;;6202804;23;20253;-79
2022/02/20 12:44:51;;;;;;;86.37;16.23;;;9.70;99.90;;;;;;6204336;23;20181;-80
2022/02/20 12:47:20;;;;;;;81.03;17.20;;;9.70;99.90;;;;;;6204470;23;20205;-79
2022/02/20 12:49:55;;;;;;;82.90;15.43;;;9.80;99.90;;;;;;6203684;23;20166;-79
2022/02/20 12:52:23;;;;;;;96.60;18.27;;;9.70;99.90;;;;;;6204378;23;20652;-78
2022/02/20 12:54:56;;;;;;;76.33;16.93;;;9.70;99.90;;;;;;6204350;23;20182;-79